sensor_id;sensor_type;location;lat;lon;timestamp;P1;durP1;ratioP1;P2;durP2;ratioP2
21202;SDS011;10759;51.982;9.232;2023-05-10T00:00:00;7.38;;;6.78;;
21202;SDS011;10759;51.982;9.232;2023-05-10T00:02:39;9.27;;;8.50;;
21202;SDS011;10759;51.982;9.232;2023-05-10T00:05:08;8.90;;;8.30;;
21202;SDS011;10759;51.982;9.232;2023-05-10T00:07:35;9.60;;;8.90;;
21202;SDS011;10759;51.982;9.232;2023-05-10T00:10:04;9.23;;;8.43;;
21202;SDS011;10759;51.982;9.232;2023-05-10T00:12:32;9.45;;;8.65;;
21202;SDS011;10759;51.982;9.232;2023-05-10T00:15:00;10.52;;;9.73;;
21202;SDS011;10759;51.982;9.232;2023-05-10T00:17:29;10.43;;;9.63;;
21202;SDS011;10759;51.982;9.232;2023-05-10T00:19:58;9.85;;;9.13;;
21202;SDS011;10759;51.982;9.232;2023-05-10T00:22:27;9.52;;;8.73;;
21202;SDS011;10759;51.982;9.232;2023-05-10T00:24:54;10.57;;;9.35;;
21202;SDS011;10759;51.982;9.232;2023-05-10T00:27:23;10.38;;;9.57;;
21202;SDS011;10759;51.982;9.232;2023-05-10T00:29:51;10.18;;;9.27;;
21202;SDS011;10759;51.982;9.232;2023-05-10T00:32:19;10.68;;;9.77;;
21202;SDS011;10759;51.982;9.232;2023-05-10T00:34:47;10.75;;;9.85;;
21202;SDS011;10759;51.982;9.232;2023-05-10T00:37:17;10.38;;;9.65;;
21202;SDS011;10759;51.982;9.232;2023-05-10T00:39:45;10.80;;;9.90;;
21202;SDS011;10759;51.982;9.232;2023-05-10T00:42:13;10.02;;;9.25;;
21202;SDS011;10759;51.982;9.232;2023-05-10T00:44:42;11.45;;;10.35;;
21202;SDS011;10759;51.982;9.232;2023-05-10T00:47:10;10.75;;;9.90;;
21202;SDS011;10759;51.982;9.232;2023-05-10T00:49:40;10.88;;;7.82;;
21202;SDS011;10759;51.982;9.232;2023-05-10T00:52:10;8.95;;;7.97;;
21202;SDS011;10759;51.982;9.232;2023-05-10T00:54:39;7.88;;;7.18;;
21202;SDS011;10759;51.982;9.232;2023-05-10T00:57:07;7.15;;;6.55;;
21202;SDS011;10759;51.982;9.232;2023-05-10T00:59:36;7.53;;;6.75;;
21202;SDS011;10759;51.982;9.232;2023-05-10T01:02:04;8.60;;;6.18;;
21202;SDS011;10759;51.982;9.232;2023-05-10T01:04:33;6.87;;;6.27;;
21202;SDS011;10759;51.982;9.232;2023-05-10T01:07:03;6.97;;;6.47;;
21202;SDS011;10759;51.982;9.232;2023-05-10T01:09:31;7.55;;;6.82;;
21202;SDS011;10759;51.982;9.232;2023-05-10T01:12:02;7.63;;;7.03;;
21202;SDS011;10759;51.982;9.232;2023-05-10T01:14:33;8.85;;;8.20;;
21202;SDS011;10759;51.982;9.232;2023-05-10T01:17:03;8.80;;;8.20;;
21202;SDS011;10759;51.982;9.232;2023-05-10T01:19:33;9.13;;;8.43;;
21202;SDS011;10759;51.982;9.232;2023-05-10T01:22:06;8.50;;;7.82;;
21202;SDS011;10759;51.982;9.232;2023-05-10T01:24:51;10.10;;;9.30;;
21202;SDS011;10759;51.982;9.232;2023-05-10T01:27:46;8.73;;;8.13;;
21202;SDS011;10759;51.982;9.232;2023-05-10T01:33:40;8.63;;;7.95;;
21202;SDS011;10759;51.982;9.232;2023-05-10T01:36:16;8.63;;;8.02;;
21202;SDS011;10759;51.982;9.232;2023-05-10T01:38:53;8.80;;;8.10;;
21202;SDS011;10759;51.982;9.232;2023-05-10T01:41:31;8.95;;;8.35;;
21202;SDS011;10759;51.982;9.232;2023-05-10T01:44:10;9.20;;;8.50;;
21202;SDS011;10759;51.982;9.232;2023-05-10T01:46:45;11.40;;;10.40;;
21202;SDS011;10759;51.982;9.232;2023-05-10T01:49:23;10.75;;;9.75;;
21202;SDS011;10759;51.982;9.232;2023-05-10T01:51:54;10.93;;;10.13;;
21202;SDS011;10759;51.982;9.232;2023-05-10T01:54:28;11.40;;;10.60;;
21202;SDS011;10759;51.982;9.232;2023-05-10T01:56:58;11.18;;;10.15;;
21202;SDS011;10759;51.982;9.232;2023-05-10T01:59:31;10.70;;;9.90;;
21202;SDS011;10759;51.982;9.232;2023-05-10T02:02:05;11.95;;;11.02;;
21202;SDS011;10759;51.982;9.232;2023-05-10T02:04:40;12.35;;;11.45;;
21202;SDS011;10759;51.982;9.232;2023-05-10T02:07:09;11.88;;;11.00;;
21202;SDS011;10759;51.982;9.232;2023-05-10T02:09:39;12.38;;;11.43;;
21202;SDS011;10759;51.982;9.232;2023-05-10T02:12:13;11.90;;;11.10;;
21202;SDS011;10759;51.982;9.232;2023-05-10T02:14:43;12.43;;;11.52;;
21202;SDS011;10759;51.982;9.232;2023-05-10T02:17:12;11.82;;;11.13;;
21202;SDS011;10759;51.982;9.232;2023-05-10T02:19:43;12.40;;;11.50;;
21202;SDS011;10759;51.982;9.232;2023-05-10T02:22:14;12.70;;;11.70;;
21202;SDS011;10759;51.982;9.232;2023-05-10T02:24:42;11.77;;;10.93;;
21202;SDS011;10759;51.982;9.232;2023-05-10T02:27:12;11.95;;;10.88;;
21202;SDS011;10759;51.982;9.232;2023-05-10T02:29:41;11.90;;;11.10;;
21202;SDS011;10759;51.982;9.232;2023-05-10T02:32:10;11.48;;;10.68;;
21202;SDS011;10759;51.982;9.232;2023-05-10T02:34:40;12.10;;;10.95;;
21202;SDS011;10759;51.982;9.232;2023-05-10T02:37:10;12.50;;;11.45;;
21202;SDS011;10759;51.982;9.232;2023-05-10T02:39:39;12.93;;;12.05;;
21202;SDS011;10759;51.982;9.232;2023-05-10T02:42:11;14.13;;;13.13;;
21202;SDS011;10759;51.982;9.232;2023-05-10T02:44:44;12.35;;;11.25;;
21202;SDS011;10759;51.982;9.232;2023-05-10T02:47:15;14.50;;;13.10;;
21202;SDS011;10759;51.982;9.232;2023-05-10T02:49:43;12.80;;;11.90;;
21202;SDS011;10759;51.982;9.232;2023-05-10T02:52:13;11.95;;;11.00;;
21202;SDS011;10759;51.982;9.232;2023-05-10T02:54:48;13.25;;;12.25;;
21202;SDS011;10759;51.982;9.232;2023-05-10T02:57:21;14.48;;;13.07;;
21202;SDS011;10759;51.982;9.232;2023-05-10T02:59:52;14.93;;;13.73;;
21202;SDS011;10759;51.982;9.232;2023-05-10T03:02:21;15.05;;;13.85;;
21202;SDS011;10759;51.982;9.232;2023-05-10T03:04:49;13.85;;;12.75;;
21202;SDS011;10759;51.982;9.232;2023-05-10T03:07:19;12.90;;;11.80;;
21202;SDS011;10759;51.982;9.232;2023-05-10T03:12:18;13.15;;;12.25;;
21202;SDS011;10759;51.982;9.232;2023-05-10T03:14:56;12.60;;;11.77;;
21202;SDS011;10759;51.982;9.232;2023-05-10T03:17:32;12.20;;;11.27;;
21202;SDS011;10759;51.982;9.232;2023-05-10T03:20:08;12.75;;;11.63;;
21202;SDS011;10759;51.982;9.232;2023-05-10T03:22:44;12.52;;;11.57;;
21202;SDS011;10759;51.982;9.232;2023-05-10T03:25:15;12.68;;;11.60;;
21202;SDS011;10759;51.982;9.232;2023-05-10T03:27:45;14.48;;;13.13;;
21202;SDS011;10759;51.982;9.232;2023-05-10T03:30:14;13.95;;;12.90;;
21202;SDS011;10759;51.982;9.232;2023-05-10T03:32:44;12.93;;;12.00;;
21202;SDS011;10759;51.982;9.232;2023-05-10T03:35:15;13.00;;;12.02;;
21202;SDS011;10759;51.982;9.232;2023-05-10T03:37:45;13.98;;;12.88;;
21202;SDS011;10759;51.982;9.232;2023-05-10T03:40:13;14.68;;;13.35;;
21202;SDS011;10759;51.982;9.232;2023-05-10T03:42:43;14.50;;;13.15;;
21202;SDS011;10759;51.982;9.232;2023-05-10T03:45:11;15.52;;;14.38;;
21202;SDS011;10759;51.982;9.232;2023-05-10T03:47:39;14.57;;;13.48;;
21202;SDS011;10759;51.982;9.232;2023-05-10T03:50:09;14.95;;;13.65;;
21202;SDS011;10759;51.982;9.232;2023-05-10T03:52:37;14.77;;;13.55;;
21202;SDS011;10759;51.982;9.232;2023-05-10T03:55:08;15.50;;;14.40;;
21202;SDS011;10759;51.982;9.232;2023-05-10T03:57:37;15.07;;;13.88;;
21202;SDS011;10759;51.982;9.232;2023-05-10T04:00:06;14.35;;;13.13;;
21202;SDS011;10759;51.982;9.232;2023-05-10T04:02:41;15.60;;;14.32;;
21202;SDS011;10759;51.982;9.232;2023-05-10T04:05:15;15.32;;;14.23;;
21202;SDS011;10759;51.982;9.232;2023-05-10T04:07:43;11.80;;;10.90;;
21202;SDS011;10759;51.982;9.232;2023-05-10T04:10:13;6.65;;;6.25;;
21202;SDS011;10759;51.982;9.232;2023-05-10T04:12:43;2.58;;;2.38;;
21202;SDS011;10759;51.982;9.232;2023-05-10T04:15:11;2.55;;;1.92;;
21202;SDS011;10759;51.982;9.232;2023-05-10T04:17:39;1.75;;;1.52;;
21202;SDS011;10759;51.982;9.232;2023-05-10T04:20:08;3.15;;;1.83;;
21202;SDS011;10759;51.982;9.232;2023-05-10T04:22:36;1.30;;;1.20;;
21202;SDS011;10759;51.982;9.232;2023-05-10T04:25:05;1.73;;;1.63;;
21202;SDS011;10759;51.982;9.232;2023-05-10T04:27:35;2.37;;;1.50;;
21202;SDS011;10759;51.982;9.232;2023-05-10T04:30:04;1.60;;;1.50;;
21202;SDS011;10759;51.982;9.232;2023-05-10T04:32:33;1.60;;;1.50;;
21202;SDS011;10759;51.982;9.232;2023-05-10T04:35:02;1.13;;;1.10;;
21202;SDS011;10759;51.982;9.232;2023-05-10T04:37:31;1.17;;;1.10;;
21202;SDS011;10759;51.982;9.232;2023-05-10T04:39:59;1.30;;;1.20;;
21202;SDS011;10759;51.982;9.232;2023-05-10T04:42:27;3.53;;;1.65;;
21202;SDS011;10759;51.982;9.232;2023-05-10T04:44:57;1.33;;;1.10;;
21202;SDS011;10759;51.982;9.232;2023-05-10T04:47:25;1.40;;;1.30;;
21202;SDS011;10759;51.982;9.232;2023-05-10T04:49:53;1.40;;;1.30;;
21202;SDS011;10759;51.982;9.232;2023-05-10T04:52:21;1.40;;;1.30;;
21202;SDS011;10759;51.982;9.232;2023-05-10T04:54:50;1.42;;;1.33;;
21202;SDS011;10759;51.982;9.232;2023-05-10T04:57:18;1.73;;;1.30;;
21202;SDS011;10759;51.982;9.232;2023-05-10T04:59:46;1.67;;;1.52;;
21202;SDS011;10759;51.982;9.232;2023-05-10T05:02:17;1.88;;;1.70;;
21202;SDS011;10759;51.982;9.232;2023-05-10T05:04:45;2.05;;;1.90;;
21202;SDS011;10759;51.982;9.232;2023-05-10T05:07:13;2.75;;;2.55;;
21202;SDS011;10759;51.982;9.232;2023-05-10T05:09:41;3.92;;;2.45;;
21202;SDS011;10759;51.982;9.232;2023-05-10T05:12:09;2.22;;;2.13;;
21202;SDS011;10759;51.982;9.232;2023-05-10T05:14:40;3.22;;;2.40;;
21202;SDS011;10759;51.982;9.232;2023-05-10T05:17:08;2.80;;;2.60;;
21202;SDS011;10759;51.982;9.232;2023-05-10T05:19:38;2.17;;;2.05;;
21202;SDS011;10759;51.982;9.232;2023-05-10T05:22:06;2.88;;;2.67;;
21202;SDS011;10759;51.982;9.232;2023-05-10T05:24:35;3.20;;;3.00;;
21202;SDS011;10759;51.982;9.232;2023-05-10T05:27:05;2.85;;;2.65;;
21202;SDS011;10759;51.982;9.232;2023-05-10T05:29:33;3.30;;;3.10;;
21202;SDS011;10759;51.982;9.232;2023-05-10T05:32:01;5.32;;;3.80;;
21202;SDS011;10759;51.982;9.232;2023-05-10T05:34:30;3.90;;;3.70;;
21202;SDS011;10759;51.982;9.232;2023-05-10T05:36:59;3.70;;;3.40;;
21202;SDS011;10759;51.982;9.232;2023-05-10T05:39:27;4.17;;;3.87;;
21202;SDS011;10759;51.982;9.232;2023-05-10T05:41:55;4.03;;;3.80;;
21202;SDS011;10759;51.982;9.232;2023-05-10T05:44:24;3.95;;;3.67;;
21202;SDS011;10759;51.982;9.232;2023-05-10T05:46:55;4.20;;;3.85;;
21202;SDS011;10759;51.982;9.232;2023-05-10T05:49:23;3.75;;;3.45;;
21202;SDS011;10759;51.982;9.232;2023-05-10T05:51:51;2.78;;;2.58;;
21202;SDS011;10759;51.982;9.232;2023-05-10T05:54:21;1.65;;;1.60;;
21202;SDS011;10759;51.982;9.232;2023-05-10T05:56:49;1.50;;;1.40;;
21202;SDS011;10759;51.982;9.232;2023-05-10T05:59:17;1.33;;;1.20;;
21202;SDS011;10759;51.982;9.232;2023-05-10T06:01:45;0.90;;;0.90;;
21202;SDS011;10759;51.982;9.232;2023-05-10T06:04:13;0.80;;;0.80;;
21202;SDS011;10759;51.982;9.232;2023-05-10T06:06:41;1.20;;;0.75;;
21202;SDS011;10759;51.982;9.232;2023-05-10T06:09:10;0.95;;;0.90;;
21202;SDS011;10759;51.982;9.232;2023-05-10T06:11:39;0.57;;;0.57;;
21202;SDS011;10759;51.982;9.232;2023-05-10T06:14:08;1.98;;;0.70;;
21202;SDS011;10759;51.982;9.232;2023-05-10T06:16:36;0.50;;;0.50;;
21202;SDS011;10759;51.982;9.232;2023-05-10T06:19:04;0.30;;;0.30;;
21202;SDS011;10759;51.982;9.232;2023-05-10T06:21:32;0.75;;;0.70;;
21202;SDS011;10759;51.982;9.232;2023-05-10T06:24:00;0.70;;;0.60;;
21202;SDS011;10759;51.982;9.232;2023-05-10T06:26:29;0.80;;;0.80;;
21202;SDS011;10759;51.982;9.232;2023-05-10T06:28:58;0.47;;;0.47;;
21202;SDS011;10759;51.982;9.232;2023-05-10T06:31:26;1.73;;;0.68;;
21202;SDS011;10759;51.982;9.232;2023-05-10T06:33:54;0.77;;;0.77;;
21202;SDS011;10759;51.982;9.232;2023-05-10T06:36:23;0.50;;;0.50;;
21202;SDS011;10759;51.982;9.232;2023-05-10T06:38:52;0.77;;;0.70;;
21202;SDS011;10759;51.982;9.232;2023-05-10T06:41:21;0.80;;;0.80;;
21202;SDS011;10759;51.982;9.232;2023-05-10T06:43:50;0.50;;;0.50;;
21202;SDS011;10759;51.982;9.232;2023-05-10T06:46:20;0.80;;;0.80;;
21202;SDS011;10759;51.982;9.232;2023-05-10T06:48:48;0.75;;;0.73;;
21202;SDS011;10759;51.982;9.232;2023-05-10T06:51:17;0.70;;;0.70;;
21202;SDS011;10759;51.982;9.232;2023-05-10T06:53:45;0.70;;;0.70;;
21202;SDS011;10759;51.982;9.232;2023-05-10T06:56:13;0.60;;;0.60;;
21202;SDS011;10759;51.982;9.232;2023-05-10T06:58:41;0.73;;;0.73;;
21202;SDS011;10759;51.982;9.232;2023-05-10T07:01:09;0.70;;;0.55;;
21202;SDS011;10759;51.982;9.232;2023-05-10T07:03:39;0.80;;;0.80;;
21202;SDS011;10759;51.982;9.232;2023-05-10T07:06:07;2.78;;;0.70;;
21202;SDS011;10759;51.982;9.232;2023-05-10T07:08:51;0.95;;;0.95;;
21202;SDS011;10759;51.982;9.232;2023-05-10T07:11:19;0.82;;;0.65;;
21202;SDS011;10759;51.982;9.232;2023-05-10T07:13:47;0.80;;;0.80;;
21202;SDS011;10759;51.982;9.232;2023-05-10T07:16:16;0.85;;;0.70;;
21202;SDS011;10759;51.982;9.232;2023-05-10T07:18:45;0.80;;;0.80;;
21202;SDS011;10759;51.982;9.232;2023-05-10T07:21:14;0.80;;;0.80;;
21202;SDS011;10759;51.982;9.232;2023-05-10T07:23:42;1.00;;;0.90;;
21202;SDS011;10759;51.982;9.232;2023-05-10T07:26:10;0.52;;;0.52;;
21202;SDS011;10759;51.982;9.232;2023-05-10T07:28:38;0.50;;;0.50;;
21202;SDS011;10759;51.982;9.232;2023-05-10T07:31:06;0.80;;;0.80;;
21202;SDS011;10759;51.982;9.232;2023-05-10T07:33:35;1.23;;;0.68;;
21202;SDS011;10759;51.982;9.232;2023-05-10T07:36:04;2.40;;;1.00;;
21202;SDS011;10759;51.982;9.232;2023-05-10T07:38:33;2.03;;;0.88;;
21202;SDS011;10759;51.982;9.232;2023-05-10T07:41:01;0.90;;;0.90;;
21202;SDS011;10759;51.982;9.232;2023-05-10T07:43:29;1.25;;;0.93;;
21202;SDS011;10759;51.982;9.232;2023-05-10T07:45:57;1.10;;;0.98;;
21202;SDS011;10759;51.982;9.232;2023-05-10T07:48:26;1.08;;;1.08;;
21202;SDS011;10759;51.982;9.232;2023-05-10T07:50:54;1.30;;;1.20;;
21202;SDS011;10759;51.982;9.232;2023-05-10T07:53:25;1.00;;;1.00;;
21202;SDS011;10759;51.982;9.232;2023-05-10T07:55:54;1.52;;;1.30;;
21202;SDS011;10759;51.982;9.232;2023-05-10T07:58:26;2.63;;;0.95;;
21202;SDS011;10759;51.982;9.232;2023-05-10T08:00:54;1.25;;;1.15;;
21202;SDS011;10759;51.982;9.232;2023-05-10T08:03:22;1.67;;;1.00;;
21202;SDS011;10759;51.982;9.232;2023-05-10T08:05:51;1.52;;;1.17;;
21202;SDS011;10759;51.982;9.232;2023-05-10T08:08:19;2.08;;;1.23;;
21202;SDS011;10759;51.982;9.232;2023-05-10T08:10:50;1.20;;;1.10;;
21202;SDS011;10759;51.982;9.232;2023-05-10T08:13:18;1.95;;;1.30;;
21202;SDS011;10759;51.982;9.232;2023-05-10T08:15:46;1.23;;;1.00;;
21202;SDS011;10759;51.982;9.232;2023-05-10T08:18:14;1.23;;;1.13;;
21202;SDS011;10759;51.982;9.232;2023-05-10T08:20:42;1.77;;;1.25;;
21202;SDS011;10759;51.982;9.232;2023-05-10T08:23:09;1.58;;;1.35;;
21202;SDS011;10759;51.982;9.232;2023-05-10T08:25:39;6.07;;;1.50;;
21202;SDS011;10759;51.982;9.232;2023-05-10T08:28:08;1.38;;;1.02;;
21202;SDS011;10759;51.982;9.232;2023-05-10T08:30:37;1.48;;;1.27;;
21202;SDS011;10759;51.982;9.232;2023-05-10T08:33:05;1.35;;;1.10;;
21202;SDS011;10759;51.982;9.232;2023-05-10T08:35:33;1.98;;;1.30;;
21202;SDS011;10759;51.982;9.232;2023-05-10T08:38:01;1.23;;;1.13;;
21202;SDS011;10759;51.982;9.232;2023-05-10T08:40:29;1.73;;;1.38;;
21202;SDS011;10759;51.982;9.232;2023-05-10T08:42:58;2.03;;;1.20;;
21202;SDS011;10759;51.982;9.232;2023-05-10T08:45:36;1.23;;;1.10;;
21202;SDS011;10759;51.982;9.232;2023-05-10T08:48:06;3.13;;;1.08;;
21202;SDS011;10759;51.982;9.232;2023-05-10T08:50:35;3.10;;;1.25;;
21202;SDS011;10759;51.982;9.232;2023-05-10T08:53:04;1.88;;;1.27;;
21202;SDS011;10759;51.982;9.232;2023-05-10T08:55:36;1.90;;;1.10;;
21202;SDS011;10759;51.982;9.232;2023-05-10T08:58:05;2.88;;;1.33;;
21202;SDS011;10759;51.982;9.232;2023-05-10T09:00:35;5.13;;;2.90;;
21202;SDS011;10759;51.982;9.232;2023-05-10T09:03:04;2.92;;;2.00;;
21202;SDS011;10759;51.982;9.232;2023-05-10T09:05:33;2.45;;;2.25;;
21202;SDS011;10759;51.982;9.232;2023-05-10T09:08:01;2.53;;;2.33;;
21202;SDS011;10759;51.982;9.232;2023-05-10T09:10:29;3.70;;;2.30;;
21202;SDS011;10759;51.982;9.232;2023-05-10T09:12:58;2.40;;;2.00;;
21202;SDS011;10759;51.982;9.232;2023-05-10T09:15:26;4.63;;;2.33;;
21202;SDS011;10759;51.982;9.232;2023-05-10T09:17:56;4.68;;;2.53;;
21202;SDS011;10759;51.982;9.232;2023-05-10T09:20:25;2.88;;;2.40;;
21202;SDS011;10759;51.982;9.232;2023-05-10T09:22:53;4.47;;;2.80;;
21202;SDS011;10759;51.982;9.232;2023-05-10T09:25:21;3.13;;;2.88;;
21202;SDS011;10759;51.982;9.232;2023-05-10T09:27:49;6.38;;;3.38;;
21202;SDS011;10759;51.982;9.232;2023-05-10T09:30:23;3.67;;;3.38;;
21202;SDS011;10759;51.982;9.232;2023-05-10T09:32:52;4.70;;;3.40;;
21202;SDS011;10759;51.982;9.232;2023-05-10T09:35:23;4.70;;;4.00;;
21202;SDS011;10759;51.982;9.232;2023-05-10T09:37:55;4.50;;;4.10;;
21202;SDS011;10759;51.982;9.232;2023-05-10T09:40:24;4.18;;;3.88;;
21202;SDS011;10759;51.982;9.232;2023-05-10T09:42:53;4.30;;;3.90;;
21202;SDS011;10759;51.982;9.232;2023-05-10T09:45:22;4.63;;;4.10;;
21202;SDS011;10759;51.982;9.232;2023-05-10T09:47:51;5.68;;;4.35;;
21202;SDS011;10759;51.982;9.232;2023-05-10T09:50:20;4.55;;;4.15;;
21202;SDS011;10759;51.982;9.232;2023-05-10T09:52:50;5.18;;;4.68;;
21202;SDS011;10759;51.982;9.232;2023-05-10T09:55:19;5.97;;;4.82;;
21202;SDS011;10759;51.982;9.232;2023-05-10T09:57:59;5.88;;;5.38;;
21202;SDS011;10759;51.982;9.232;2023-05-10T10:00:28;7.28;;;6.25;;
21202;SDS011;10759;51.982;9.232;2023-05-10T10:03:02;5.65;;;5.25;;
21202;SDS011;10759;51.982;9.232;2023-05-10T10:05:31;5.22;;;4.72;;
21202;SDS011;10759;51.982;9.232;2023-05-10T10:08:02;6.57;;;5.97;;
21202;SDS011;10759;51.982;9.232;2023-05-10T10:10:32;6.68;;;5.45;;
21202;SDS011;10759;51.982;9.232;2023-05-10T10:13:01;8.75;;;6.10;;
21202;SDS011;10759;51.982;9.232;2023-05-10T10:15:29;8.88;;;6.68;;
21202;SDS011;10759;51.982;9.232;2023-05-10T10:17:57;5.80;;;5.30;;
21202;SDS011;10759;51.982;9.232;2023-05-10T10:20:26;7.15;;;6.43;;
21202;SDS011;10759;51.982;9.232;2023-05-10T10:22:55;8.27;;;6.60;;
21202;SDS011;10759;51.982;9.232;2023-05-10T10:25:24;7.93;;;6.47;;
21202;SDS011;10759;51.982;9.232;2023-05-10T10:27:58;5.88;;;5.35;;
21202;SDS011;10759;51.982;9.232;2023-05-10T10:30:38;8.93;;;7.68;;
21202;SDS011;10759;51.982;9.232;2023-05-10T10:36:13;7.97;;;7.20;;
21202;SDS011;10759;51.982;9.232;2023-05-10T10:38:55;6.68;;;6.07;;
21202;SDS011;10759;51.982;9.232;2023-05-10T10:41:32;7.72;;;6.05;;
21202;SDS011;10759;51.982;9.232;2023-05-10T10:46:58;6.60;;;6.10;;
21202;SDS011;10759;51.982;9.232;2023-05-10T10:49:26;7.30;;;6.50;;
21202;SDS011;10759;51.982;9.232;2023-05-10T10:52:13;7.65;;;6.95;;
21202;SDS011;10759;51.982;9.232;2023-05-10T10:54:47;9.55;;;8.63;;
21202;SDS011;10759;51.982;9.232;2023-05-10T10:57:20;11.00;;;9.88;;
21202;SDS011;10759;51.982;9.232;2023-05-10T10:59:49;10.18;;;9.23;;
21202;SDS011;10759;51.982;9.232;2023-05-10T11:02:32;10.00;;;9.10;;
21202;SDS011;10759;51.982;9.232;2023-05-10T11:07:51;12.10;;;10.98;;
21202;SDS011;10759;51.982;9.232;2023-05-10T11:10:21;14.35;;;11.07;;
21202;SDS011;10759;51.982;9.232;2023-05-10T11:12:54;11.77;;;10.68;;
21202;SDS011;10759;51.982;9.232;2023-05-10T11:15:28;12.30;;;11.02;;
21202;SDS011;10759;51.982;9.232;2023-05-10T11:17:58;10.98;;;9.63;;
21202;SDS011;10759;51.982;9.232;2023-05-10T11:20:27;10.85;;;9.95;;
21202;SDS011;10759;51.982;9.232;2023-05-10T11:23:10;10.30;;;9.40;;
21202;SDS011;10759;51.982;9.232;2023-05-10T11:25:42;9.73;;;8.73;;
21202;SDS011;10759;51.982;9.232;2023-05-10T11:28:12;11.38;;;10.27;;
21202;SDS011;10759;51.982;9.232;2023-05-10T11:30:41;11.57;;;10.38;;
21202;SDS011;10759;51.982;9.232;2023-05-10T11:33:14;10.07;;;9.18;;
21202;SDS011;10759;51.982;9.232;2023-05-10T11:35:44;8.95;;;8.13;;
21202;SDS011;10759;51.982;9.232;2023-05-10T11:38:12;8.55;;;7.85;;
21202;SDS011;10759;51.982;9.232;2023-05-10T11:40:41;11.65;;;9.15;;
21202;SDS011;10759;51.982;9.232;2023-05-10T11:43:09;8.73;;;8.02;;
21202;SDS011;10759;51.982;9.232;2023-05-10T11:45:41;9.02;;;7.97;;
21202;SDS011;10759;51.982;9.232;2023-05-10T11:48:09;9.60;;;8.73;;
21202;SDS011;10759;51.982;9.232;2023-05-10T11:50:37;9.68;;;8.77;;
21202;SDS011;10759;51.982;9.232;2023-05-10T11:53:05;8.95;;;7.75;;
21202;SDS011;10759;51.982;9.232;2023-05-10T11:55:33;8.50;;;7.65;;
21202;SDS011;10759;51.982;9.232;2023-05-10T11:58:01;9.63;;;8.82;;
21202;SDS011;10759;51.982;9.232;2023-05-10T12:00:30;9.25;;;8.27;;
21202;SDS011;10759;51.982;9.232;2023-05-10T12:03:01;9.20;;;8.25;;
21202;SDS011;10759;51.982;9.232;2023-05-10T12:05:31;9.05;;;8.25;;
21202;SDS011;10759;51.982;9.232;2023-05-10T12:08:12;9.30;;;8.50;;
21202;SDS011;10759;51.982;9.232;2023-05-10T12:10:41;9.43;;;8.65;;
21202;SDS011;10759;51.982;9.232;2023-05-10T12:13:12;10.23;;;9.35;;
21202;SDS011;10759;51.982;9.232;2023-05-10T12:15:42;9.85;;;9.02;;
21202;SDS011;10759;51.982;9.232;2023-05-10T12:18:12;10.32;;;8.90;;
21202;SDS011;10759;51.982;9.232;2023-05-10T12:20:49;10.57;;;8.85;;
21202;SDS011;10759;51.982;9.232;2023-05-10T12:23:20;9.55;;;8.65;;
21202;SDS011;10759;51.982;9.232;2023-05-10T12:25:48;9.48;;;8.57;;
21202;SDS011;10759;51.982;9.232;2023-05-10T12:28:15;9.15;;;8.25;;
21202;SDS011;10759;51.982;9.232;2023-05-10T12:30:47;10.40;;;8.40;;
21202;SDS011;10759;51.982;9.232;2023-05-10T12:33:17;10.95;;;8.65;;
21202;SDS011;10759;51.982;9.232;2023-05-10T12:35:45;9.70;;;8.90;;
21202;SDS011;10759;51.982;9.232;2023-05-10T12:38:26;9.17;;;8.37;;
21202;SDS011;10759;51.982;9.232;2023-05-10T12:40:57;9.27;;;8.38;;
21202;SDS011;10759;51.982;9.232;2023-05-10T12:43:26;9.52;;;8.55;;
21202;SDS011;10759;51.982;9.232;2023-05-10T12:45:54;9.25;;;8.40;;
21202;SDS011;10759;51.982;9.232;2023-05-10T12:48:24;8.68;;;7.97;;
21202;SDS011;10759;51.982;9.232;2023-05-10T12:50:52;8.10;;;7.45;;
21202;SDS011;10759;51.982;9.232;2023-05-10T12:53:20;8.85;;;7.97;;
21202;SDS011;10759;51.982;9.232;2023-05-10T12:55:47;10.20;;;8.00;;
21202;SDS011;10759;51.982;9.232;2023-05-10T12:58:15;10.50;;;9.50;;
21202;SDS011;10759;51.982;9.232;2023-05-10T13:01:00;9.90;;;8.90;;
21202;SDS011;10759;51.982;9.232;2023-05-10T13:03:29;10.30;;;9.30;;
21202;SDS011;10759;51.982;9.232;2023-05-10T13:05:57;9.18;;;8.40;;
21202;SDS011;10759;51.982;9.232;2023-05-10T13:08:25;8.90;;;8.10;;
21202;SDS011;10759;51.982;9.232;2023-05-10T13:13:23;8.60;;;7.90;;
21202;SDS011;10759;51.982;9.232;2023-05-10T13:15:51;9.18;;;8.38;;
21202;SDS011;10759;51.982;9.232;2023-05-10T13:18:19;8.32;;;7.40;;
21202;SDS011;10759;51.982;9.232;2023-05-10T13:20:49;8.18;;;6.88;;
21202;SDS011;10759;51.982;9.232;2023-05-10T13:23:17;19.25;;;7.40;;
21202;SDS011;10759;51.982;9.232;2023-05-10T13:25:45;18.00;;;7.90;;
21202;SDS011;10759;51.982;9.232;2023-05-10T13:28:12;6.95;;;6.05;;
21202;SDS011;10759;51.982;9.232;2023-05-10T13:30:41;7.10;;;6.40;;
21202;SDS011;10759;51.982;9.232;2023-05-10T13:33:08;7.63;;;6.35;;
21202;SDS011;10759;51.982;9.232;2023-05-10T13:35:36;7.88;;;7.05;;
21202;SDS011;10759;51.982;9.232;2023-05-10T13:38:05;7.05;;;6.32;;
21202;SDS011;10759;51.982;9.232;2023-05-10T13:40:34;6.13;;;5.63;;
21202;SDS011;10759;51.982;9.232;2023-05-10T13:43:02;6.70;;;5.35;;
21202;SDS011;10759;51.982;9.232;2023-05-10T13:45:30;7.15;;;5.60;;
21202;SDS011;10759;51.982;9.232;2023-05-10T13:47:58;7.40;;;6.70;;
21202;SDS011;10759;51.982;9.232;2023-05-10T13:50:26;8.57;;;7.38;;
21202;SDS011;10759;51.982;9.232;2023-05-10T13:52:54;9.68;;;7.78;;
21202;SDS011;10759;51.982;9.232;2023-05-10T13:55:23;9.35;;;8.43;;
21202;SDS011;10759;51.982;9.232;2023-05-10T13:57:51;7.53;;;6.93;;
21202;SDS011;10759;51.982;9.232;2023-05-10T14:00:19;8.07;;;7.32;;
21202;SDS011;10759;51.982;9.232;2023-05-10T14:02:47;6.80;;;6.20;;
21202;SDS011;10759;51.982;9.232;2023-05-10T14:05:15;6.72;;;6.22;;
21202;SDS011;10759;51.982;9.232;2023-05-10T14:07:47;6.32;;;5.72;;
21202;SDS011;10759;51.982;9.232;2023-05-10T14:10:15;6.57;;;5.97;;
21202;SDS011;10759;51.982;9.232;2023-05-10T14:12:44;6.80;;;5.55;;
21202;SDS011;10759;51.982;9.232;2023-05-10T14:15:12;7.57;;;6.88;;
21202;SDS011;10759;51.982;9.232;2023-05-10T14:17:40;8.90;;;6.35;;
21202;SDS011;10759;51.982;9.232;2023-05-10T14:20:08;7.47;;;6.70;;
21202;SDS011;10759;51.982;9.232;2023-05-10T14:22:37;8.15;;;5.60;;
21202;SDS011;10759;51.982;9.232;2023-05-10T14:25:05;6.57;;;5.70;;
21202;SDS011;10759;51.982;9.232;2023-05-10T14:27:33;5.28;;;4.78;;
21202;SDS011;10759;51.982;9.232;2023-05-10T14:30:02;5.65;;;4.70;;
21202;SDS011;10759;51.982;9.232;2023-05-10T14:32:30;5.30;;;4.47;;
21202;SDS011;10759;51.982;9.232;2023-05-10T14:34:59;5.38;;;4.80;;
21202;SDS011;10759;51.982;9.232;2023-05-10T14:37:26;4.80;;;3.70;;
21202;SDS011;10759;51.982;9.232;2023-05-10T14:39:54;4.13;;;3.67;;
21202;SDS011;10759;51.982;9.232;2023-05-10T14:42:22;3.67;;;3.38;;
21202;SDS011;10759;51.982;9.232;2023-05-10T14:44:50;5.82;;;2.90;;
21202;SDS011;10759;51.982;9.232;2023-05-10T14:47:19;4.25;;;3.28;;
21202;SDS011;10759;51.982;9.232;2023-05-10T14:49:47;4.00;;;3.60;;
21202;SDS011;10759;51.982;9.232;2023-05-10T14:52:15;4.15;;;3.22;;
21202;SDS011;10759;51.982;9.232;2023-05-10T14:54:43;3.95;;;3.55;;
21202;SDS011;10759;51.982;9.232;2023-05-10T14:57:11;3.40;;;3.15;;
21202;SDS011;10759;51.982;9.232;2023-05-10T14:59:39;3.55;;;3.25;;
21202;SDS011;10759;51.982;9.232;2023-05-10T15:02:08;4.43;;;3.08;;
21202;SDS011;10759;51.982;9.232;2023-05-10T15:04:38;4.28;;;2.90;;
21202;SDS011;10759;51.982;9.232;2023-05-10T15:07:06;3.65;;;3.40;;
21202;SDS011;10759;51.982;9.232;2023-05-10T15:09:34;6.18;;;3.30;;
21202;SDS011;10759;51.982;9.232;2023-05-10T15:12:02;3.13;;;2.83;;
21202;SDS011;10759;51.982;9.232;2023-05-10T15:14:30;3.40;;;3.10;;